Time;durP1;ratioP1;P1;durP2;ratioP2;P2;SDS_P1;SDS_P2;PMS_P1;PMS_P2;Temp;Humidity;BMP_temperature;BMP_pressure;BME280_temperature;BME280_humidity;BME280_pressure;Samples;Min_cycle;Max_cycle;Signal;HPM_P1;HPM_P2
2022/09/21 00:01:23;;;;;;;6.77;2.17;;;16.30;91.20;;;;;;4956485;28;20449;-72
2022/09/21 00:03:58;;;;;;;2.50;1.80;;;16.30;91.20;;;;;;4976627;28;20948;-72
2022/09/21 00:06:29;;;;;;;4.03;2.13;;;16.30;91.20;;;;;;4960635;28;20458;-72
2022/09/21 00:08:55;;;;;;;3.77;2.10;;;16.30;91.20;;;;;;4960631;28;20465;-72
2022/09/21 00:11:29;;;;;;;3.60;1.80;;;16.20;91.10;;;;;;4993052;28;20417;-72
2022/09/21 00:14:04;;;;;;;2.43;1.90;;;16.20;91.10;;;;;;4977880;28;20407;-72
2022/09/21 00:16:32;;;;;;;2.87;2.00;;;16.20;91.10;;;;;;4992918;28;20816;-72
2022/09/21 00:19:01;;;;;;;2.33;1.87;;;16.20;91.10;;;;;;4960518;28;20476;-72
2022/09/21 00:21:28;;;;;;;2.77;2.03;;;16.20;91.10;;;;;;4992856;28;20403;-72
2022/09/21 00:23:54;;;;;;;1.83;1.60;;;16.20;91.10;;;;;;4928433;28;20456;-72
2022/09/21 00:26:24;;;;;;;2.77;1.87;;;16.20;91.10;;;;;;4992271;28;20444;-72
2022/09/21 00:29:01;;;;;;;3.23;2.10;;;16.20;91.10;;;;;;4992661;28;20410;-72
2022/09/21 00:31:30;;;;;;;3.40;2.10;;;16.20;91.10;;;;;;4960262;28;20415;-72
2022/09/21 00:33:59;;;;;;;4.30;1.97;;;16.20;91.10;;;;;;4960453;28;20833;-72
2022/09/21 00:36:27;;;;;;;2.30;2.07;;;16.20;91.10;;;;;;4977275;28;20807;-72
2022/09/21 00:38:55;;;;;;;5.63;2.40;;;16.10;91.10;;;;;;4959899;28;20397;-72
2022/09/21 00:41:27;;;;;;;2.70;2.10;;;16.10;91.10;;;;;;4977408;28;20434;-72
2022/09/21 00:44:21;;;;;;;1.93;1.80;;;16.10;91.10;;;;;;4960024;28;20984;-72
2022/09/21 00:46:50;;;;;;;2.73;2.03;;;16.10;91.10;;;;;;4977079;28;20440;-72
2022/09/21 00:49:17;;;;;;;2.40;1.80;;;16.10;91.10;;;;;;4977056;28;20405;-72
2022/09/21 00:51:44;;;;;;;2.80;2.20;;;16.10;91.10;;;;;;4992018;28;20399;-72
2022/09/21 00:54:16;;;;;;;6.17;2.40;;;16.10;91.10;;;;;;4976883;28;20412;-72
2022/09/21 00:56:44;;;;;;;4.73;1.97;;;16.10;91.10;;;;;;4976984;28;20404;-72
2022/09/21 00:59:12;;;;;;;3.03;2.20;;;16.10;91.10;;;;;;4991907;28;20421;-72
2022/09/21 01:01:38;;;;;;;4.50;2.30;;;16.10;91.10;;;;;;4991977;28;20429;-72
2022/09/21 01:04:06;;;;;;;1.90;1.60;;;16.10;91.10;;;;;;4976837;28;20448;-72
2022/09/21 01:06:33;;;;;;;2.20;2.00;;;16.00;91.10;;;;;;4976774;28;20439;-72
2022/09/21 01:09:00;;;;;;;2.93;2.07;;;16.00;91.10;;;;;;4991836;28;20427;-72
2022/09/21 01:11:59;;;;;;;3.40;1.83;;;16.00;91.10;;;;;;4991865;28;20406;-72
2022/09/21 01:14:42;;;;;;;4.00;2.17;;;16.00;91.10;;;;;;4958551;28;20447;-72
2022/09/21 01:17:32;;;;;;;5.20;2.77;;;16.00;91.10;;;;;;4975602;28;20447;-72
2022/09/21 01:20:22;;;;;;;4.80;2.37;;;16.00;91.10;;;;;;4952496;28;20482;-72
2022/09/21 01:23:19;;;;;;;3.40;1.87;;;16.00;91.10;;;;;;4959612;28;20415;-72
2022/09/21 01:25:52;;;;;;;2.77;2.27;;;16.00;91.10;;;;;;4958974;28;20470;-72
2022/09/21 01:28:32;;;;;;;2.23;2.03;;;16.00;91.10;;;;;;4959237;28;20825;-72
2022/09/21 01:31:04;;;;;;;3.30;1.73;;;16.00;91.10;;;;;;4959017;28;20969;-72
2022/09/21 01:34:04;;;;;;;2.90;1.87;;;16.00;91.10;;;;;;4961886;28;20434;-72
2022/09/21 01:36:33;;;;;;;2.60;1.83;;;15.90;91.00;;;;;;4991389;28;20784;-72
2022/09/21 01:39:13;;;;;;;5.30;1.77;;;15.90;91.00;;;;;;4976076;28;20461;-72
2022/09/21 01:41:43;;;;;;;3.37;1.80;;;15.90;91.00;;;;;;4959044;28;20426;-72
2022/09/21 01:44:18;;;;;;;3.20;2.00;;;15.90;91.00;;;;;;4976060;28;20821;-73
2022/09/21 01:46:47;;;;;;;2.10;1.70;;;15.90;91.00;;;;;;4976043;28;20408;-72
2022/09/21 01:49:24;;;;;;;5.20;1.97;;;15.90;91.00;;;;;;4975940;28;20773;-72
2022/09/21 01:52:02;;;;;;;4.07;2.40;;;15.90;91.00;;;;;;4958348;28;20438;-72
2022/09/21 01:54:39;;;;;;;2.53;2.30;;;15.90;90.90;;;;;;4958463;28;20955;-71
2022/09/21 01:57:16;;;;;;;3.77;2.13;;;15.90;90.90;;;;;;4975833;28;20415;-72
2022/09/21 01:59:48;;;;;;;2.10;1.90;;;15.90;90.90;;;;;;4958530;28;20507;-72
2022/09/21 02:02:35;;;;;;;3.13;1.90;;;15.90;90.90;;;;;;4958496;28;20427;-72
2022/09/21 02:05:05;;;;;;;3.20;2.17;;;15.80;90.80;;;;;;4958345;28;20561;-72
2022/09/21 02:07:33;;;;;;;3.00;1.97;;;15.80;90.80;;;;;;4974715;28;20422;-72
2022/09/21 02:10:04;;;;;;;4.23;2.17;;;15.80;90.80;;;;;;4975575;28;20406;-72
2022/09/21 02:12:32;;;;;;;2.33;1.77;;;15.80;90.80;;;;;;4975435;28;20418;-72
2022/09/21 02:15:02;;;;;;;3.37;1.87;;;15.80;90.70;;;;;;4975444;28;20442;-72
2022/09/21 02:17:42;;;;;;;3.93;1.97;;;15.80;90.70;;;;;;4990239;28;20410;-72
2022/09/21 02:20:29;;;;;;;2.93;1.90;;;15.80;90.70;;;;;;4990312;28;20527;-72
2022/09/21 02:23:24;;;;;;;2.37;1.83;;;15.80;90.70;;;;;;4975306;28;20423;-72
2022/09/21 02:26:12;;;;;;;2.47;2.10;;;15.80;90.70;;;;;;4975388;28;20539;-72
2022/09/21 02:29:06;;;;;;;2.77;1.90;;;15.80;90.70;;;;;;4975313;28;20456;-72
2022/09/21 02:32:01;;;;;;;2.50;1.80;;;15.70;90.60;;;;;;4942251;28;20409;-72
2022/09/21 02:34:52;;;;;;;4.30;2.63;;;15.70;90.60;;;;;;4975240;28;20415;-72
2022/09/21 02:37:31;;;;;;;3.33;1.90;;;15.70;90.60;;;;;;4957990;28;20436;-72
2022/09/21 02:40:11;;;;;;;5.03;1.90;;;15.70;90.60;;;;;;4957782;28;20478;-72
2022/09/21 02:42:41;;;;;;;2.23;1.83;;;15.70;90.50;;;;;;4957853;28;20903;-72
2022/09/21 02:45:18;;;;;;;3.90;2.10;;;15.70;90.50;;;;;;4989951;28;20561;-72
2022/09/21 02:47:58;;;;;;;2.53;2.17;;;15.70;90.50;;;;;;4974943;28;20766;-72
2022/09/21 02:50:39;;;;;;;3.30;2.50;;;15.70;90.50;;;;;;4990101;28;20491;-72
2022/09/21 02:53:07;;;;;;;2.07;1.67;;;15.60;90.40;;;;;;4989809;28;20539;-72
2022/09/21 02:55:40;;;;;;;3.23;1.93;;;15.60;90.40;;;;;;4989713;28;20818;-72
2022/09/21 02:58:11;;;;;;;3.57;1.90;;;15.60;90.40;;;;;;4989825;28;20404;-72
2022/09/21 03:00:46;;;;;;;3.63;2.40;;;15.60;90.40;;;;;;4960400;28;20526;-72
2022/09/21 03:03:20;;;;;;;2.30;2.10;;;15.60;90.40;;;;;;4974687;28;20461;-72
2022/09/21 03:05:48;;;;;;;2.73;2.30;;;15.60;90.30;;;;;;4925587;28;20568;-72
2022/09/21 03:08:16;;;;;;;2.87;1.93;;;15.60;90.40;;;;;;4957527;28;20539;-72
2022/09/21 03:10:42;;;;;;;3.47;2.03;;;15.60;90.30;;;;;;4957516;28;20424;-72
2022/09/21 03:13:14;;;;;;;2.63;2.30;;;15.60;90.30;;;;;;4974531;28;20398;-72
2022/09/21 03:15:41;;;;;;;3.80;2.00;;;15.60;90.30;;;;;;4974463;28;20436;-72
2022/09/21 03:18:10;;;;;;;4.20;2.10;;;15.50;90.20;;;;;;4941494;28;20912;-72
2022/09/21 03:20:44;;;;;;;2.60;1.80;;;15.50;90.20;;;;;;4957297;28;20451;-72
2022/09/21 03:23:26;;;;;;;2.13;1.93;;;15.60;90.20;;;;;;4989758;28;20979;-72
2022/09/21 03:25:54;;;;;;;2.90;2.20;;;15.50;90.20;;;;;;4974314;28;20470;-72
2022/09/21 03:28:25;;;;;;;3.20;2.50;;;15.50;90.20;;;;;;4941467;28;20192;-72
2022/09/21 03:30:56;;;;;;;2.30;1.70;;;15.50;90.10;;;;;;4989246;28;20915;-72
2022/09/21 03:33:24;;;;;;;2.43;2.00;;;15.50;90.10;;;;;;4957187;28;20407;-72
2022/09/21 03:35:55;;;;;;;2.73;2.10;;;15.50;90.10;;;;;;4974131;28;20540;-72
2022/09/21 03:38:23;;;;;;;2.63;2.03;;;15.50;90.10;;;;;;4960138;28;20445;-72
2022/09/21 03:40:50;;;;;;;2.50;1.73;;;15.50;90.10;;;;;;4978480;28;20413;-72
2022/09/21 03:43:22;;;;;;;4.47;2.10;;;15.40;90.00;;;;;;4961211;28;20421;-72
2022/09/21 03:45:48;;;;;;;5.17;2.50;;;15.40;90.00;;;;;;4960767;28;20481;-72
2022/09/21 03:48:15;;;;;;;3.63;2.23;;;15.40;90.00;;;;;;4978200;28;20867;-72
2022/09/21 03:50:42;;;;;;;3.10;2.30;;;15.40;90.00;;;;;;4993465;28;20440;-72
2022/09/21 03:53:14;;;;;;;3.33;1.73;;;15.40;89.90;;;;;;4960905;28;20434;-72
2022/09/21 03:55:42;;;;;;;2.23;1.80;;;15.40;89.90;;;;;;4961496;28;20519;-72
2022/09/21 03:58:09;;;;;;;2.20;2.00;;;15.40;89.90;;;;;;4993097;28;20434;-72
2022/09/21 04:00:38;;;;;;;2.30;2.10;;;15.40;89.80;;;;;;4978022;28;20414;-72
2022/09/21 04:03:07;;;;;;;2.13;1.87;;;15.40;89.80;;;;;;4977736;28;20942;-72
2022/09/21 04:05:37;;;;;;;2.73;2.10;;;15.30;89.60;;;;;;4960595;28;20552;-72
2022/09/21 04:08:06;;;;;;;3.70;2.33;;;15.30;89.60;;;;;;4977559;28;20407;-76
2022/09/21 04:10:42;;;;;;;3.40;2.50;;;15.30;89.60;;;;;;4959716;28;20416;-75
2022/09/21 04:13:12;;;;;;;3.03;2.30;;;15.30;89.60;;;;;;4956520;29;20415;-75
2022/09/21 04:15:38;;;;;;;2.90;2.13;;;15.30;89.50;;;;;;4940095;29;20951;-77
2022/09/21 04:18:04;;;;;;;4.30;2.10;;;15.30;89.60;;;;;;4945664;28;20440;-76
2022/09/21 04:20:31;;;;;;;3.43;2.10;;;15.30;89.50;;;;;;4990641;28;20810;-76
2022/09/21 04:22:58;;;;;;;3.10;2.10;;;15.30;89.50;;;;;;4957913;28;20426;-76
2022/09/21 04:25:24;;;;;;;7.40;2.70;;;15.30;89.40;;;;;;4975584;28;20474;-76
2022/09/21 04:27:51;;;;;;;5.33;2.37;;;15.30;89.50;;;;;;4972742;28;20442;-76
2022/09/21 04:30:19;;;;;;;3.47;2.13;;;15.20;89.40;;;;;;4954151;29;20175;-76
2022/09/21 04:32:45;;;;;;;3.07;1.93;;;15.20;89.30;;;;;;4939967;29;20442;-76
2022/09/21 04:35:13;;;;;;;2.30;2.00;;;15.20;89.20;;;;;;4942849;28;20856;-76
2022/09/21 04:37:39;;;;;;;2.53;1.90;;;15.20;89.20;;;;;;4975723;28;20432;-76
2022/09/21 04:40:09;;;;;;;4.13;2.03;;;15.20;89.20;;;;;;4958829;28;20447;-76
2022/09/21 04:42:35;;;;;;;2.70;2.03;;;15.20;89.10;;;;;;4988753;28;20473;-76
2022/09/21 04:45:06;;;;;;;2.67;2.07;;;15.20;89.10;;;;;;4971632;28;20478;-76
2022/09/21 04:47:36;;;;;;;2.80;2.30;;;15.10;88.90;;;;;;4956285;28;20793;-76
2022/09/21 04:50:07;;;;;;;2.20;1.87;;;15.10;88.90;;;;;;4960957;28;20419;-76
2022/09/21 04:52:44;;;;;;;3.83;1.90;;;15.10;88.80;;;;;;4988202;28;20446;-76
2022/09/21 04:55:10;;;;;;;2.27;2.07;;;15.10;88.70;;;;;;4958051;28;20455;-76
2022/09/21 04:57:38;;;;;;;2.20;2.00;;;15.10;88.70;;;;;;4955040;29;20431;-75
2022/09/21 05:00:08;;;;;;;2.73;2.13;;;15.10;88.70;;;;;;4946327;28;20430;-75
2022/09/21 05:02:36;;;;;;;3.63;2.33;;;15.10;88.60;;;;;;4951833;28;20800;-75
2022/09/21 05:05:03;;;;;;;2.07;1.87;;;15.10;88.60;;;;;;4988673;28;20522;-75
2022/09/21 05:07:28;;;;;;;4.10;2.10;;;15.10;88.70;;;;;;4973239;28;20439;-75
2022/09/21 05:10:04;;;;;;;2.50;2.27;;;15.10;88.60;;;;;;4936345;29;20425;-75
2022/09/21 05:12:31;;;;;;;4.80;2.40;;;15.10;88.60;;;;;;4921608;28;20539;-75
2022/09/21 05:14:58;;;;;;;2.43;1.90;;;15.00;88.40;;;;;;4975721;28;20443;-75
2022/09/21 05:17:24;;;;;;;2.40;2.20;;;15.00;88.40;;;;;;4954758;28;20428;-75
2022/09/21 05:19:52;;;;;;;3.10;1.97;;;15.00;88.30;;;;;;4956185;29;20412;-76
2022/09/21 05:22:18;;;;;;;4.00;2.30;;;15.00;88.30;;;;;;4939035;29;20466;-76
2022/09/21 05:24:49;;;;;;;3.80;2.40;;;15.00;88.30;;;;;;4952470;28;20567;-76
2022/09/21 05:27:17;;;;;;;3.90;2.20;;;15.00;88.20;;;;;;4958297;28;20495;-76
2022/09/21 05:29:46;;;;;;;2.30;1.97;;;15.00;88.20;;;;;;4957084;28;20474;-76
2022/09/21 05:32:33;;;;;;;2.20;2.00;;;15.00;88.20;;;;;;4941646;28;20436;-76
2022/09/21 05:35:11;;;;;;;2.40;1.87;;;15.00;88.10;;;;;;4957882;28;20464;-73
2022/09/21 05:37:57;;;;;;;4.07;2.60;;;15.00;88.10;;;;;;4975513;28;20489;-76
2022/09/21 05:40:26;;;;;;;3.00;2.43;;;14.90;88.00;;;;;;4943979;29;20424;-76
2022/09/21 05:42:55;;;;;;;2.80;2.17;;;14.90;88.00;;;;;;4952111;28;20937;-76
2022/09/21 05:45:24;;;;;;;5.67;2.50;;;14.90;87.90;;;;;;4974526;28;20467;-76
2022/09/21 05:48:14;;;;;;;5.17;2.90;;;14.90;87.70;;;;;;4957282;28;20952;-76
2022/09/21 05:51:18;;;;;;;3.27;2.00;;;14.90;87.60;;;;;;4974807;28;20402;-76
2022/09/21 05:53:49;;;;;;;2.37;2.10;;;14.90;87.50;;;;;;4974218;28;20420;-76
2022/09/21 05:56:23;;;;;;;3.37;2.27;;;14.80;87.50;;;;;;4974154;28;20432;-76
2022/09/21 05:59:01;;;;;;;4.40;2.80;;;14.80;87.50;;;;;;4953584;29;20482;-76
2022/09/21 06:01:39;;;;;;;4.30;2.30;;;14.80;87.50;;;;;;4937741;29;20428;-76
2022/09/21 06:04:11;;;;;;;2.63;2.17;;;14.80;87.50;;;;;;4937611;29;20848;-76
2022/09/21 06:06:37;;;;;;;2.10;1.73;;;14.80;87.60;;;;;;4954713;29;20420;-76
2022/09/21 06:09:07;;;;;;;3.60;2.10;;;14.80;87.60;;;;;;4936669;29;20430;-76
2022/09/21 06:11:39;;;;;;;3.20;1.70;;;14.80;87.60;;;;;;4923567;29;20499;-76
2022/09/21 06:14:07;;;;;;;3.30;1.80;;;14.80;87.70;;;;;;4937530;29;20425;-76
2022/09/21 06:16:40;;;;;;;2.10;1.80;;;14.70;87.60;;;;;;4937723;29;20500;-76
2022/09/21 06:19:10;;;;;;;2.50;2.30;;;14.80;87.70;;;;;;4937226;29;20909;-76
2022/09/21 06:21:44;;;;;;;3.53;2.20;;;14.70;87.60;;;;;;4938477;29;20482;-76
2022/09/21 06:24:12;;;;;;;4.43;2.60;;;14.70;87.70;;;;;;4966832;28;20493;-76
2022/09/21 06:26:41;;;;;;;3.23;2.67;;;14.70;87.70;;;;;;4940523;28;20420;-76
2022/09/21 06:29:07;;;;;;;3.43;2.37;;;14.70;87.80;;;;;;4972373;28;20775;-76
2022/09/21 06:31:34;;;;;;;4.10;2.33;;;14.70;87.80;;;;;;4973607;28;20407;-76
2022/09/21 06:34:02;;;;;;;3.50;2.47;;;14.80;88.00;;;;;;4955979;28;20163;-76
2022/09/21 06:36:31;;;;;;;3.33;2.20;;;14.70;87.80;;;;;;4972426;28;20450;-76
2022/09/21 06:38:57;;;;;;;3.67;2.53;;;14.70;87.90;;;;;;4936421;29;20450;-76
2022/09/21 06:41:25;;;;;;;3.00;2.57;;;14.70;88.00;;;;;;4921171;29;20429;-76
2022/09/21 06:43:56;;;;;;;2.70;2.10;;;14.70;88.10;;;;;;4953959;28;20213;-76
2022/09/21 06:46:23;;;;;;;4.83;3.10;;;14.70;88.10;;;;;;4952796;29;20821;-76
2022/09/21 06:48:49;;;;;;;3.50;3.20;;;14.70;88.20;;;;;;4954725;29;20411;-76
2022/09/21 06:51:15;;;;;;;3.93;2.87;;;14.70;88.30;;;;;;4953424;29;20475;-74
2022/09/21 06:53:41;;;;;;;4.33;2.70;;;14.70;88.40;;;;;;4952631;29;20434;-75
2022/09/21 06:56:09;;;;;;;5.07;2.90;;;14.70;88.40;;;;;;4953126;29;20449;-75
2022/09/21 06:58:38;;;;;;;3.07;2.63;;;14.70;88.60;;;;;;4953854;29;20304;-75
2022/09/21 07:01:09;;;;;;;3.20;2.53;;;14.70;88.70;;;;;;4936805;29;20396;-74
2022/09/21 07:03:36;;;;;;;4.70;3.00;;;14.60;88.60;;;;;;4936602;29;20478;-74
2022/09/21 07:06:07;;;;;;;3.60;3.13;;;14.60;88.70;;;;;;4953729;29;20557;-74
2022/09/21 07:08:34;;;;;;;4.90;2.70;;;14.60;88.80;;;;;;4962857;28;20851;-74
2022/09/21 07:11:01;;;;;;;4.20;2.50;;;14.70;89.10;;;;;;4972846;28;20532;-74
2022/09/21 07:13:28;;;;;;;3.90;2.83;;;14.70;89.20;;;;;;4971588;28;20964;-75
2022/09/21 07:15:54;;;;;;;3.97;2.80;;;14.70;89.20;;;;;;4940155;28;20438;-74
2022/09/21 07:18:23;;;;;;;4.30;2.90;;;14.70;89.30;;;;;;4955461;28;20461;-74
2022/09/21 07:20:49;;;;;;;3.77;2.83;;;14.70;89.30;;;;;;4939607;28;20422;-74
2022/09/21 07:23:18;;;;;;;4.23;3.20;;;14.70;89.40;;;;;;4972760;28;20825;-75
2022/09/21 07:25:49;;;;;;;4.73;3.07;;;14.70;89.50;;;;;;4939451;28;20474;-74
2022/09/21 07:28:15;;;;;;;3.73;3.13;;;14.60;89.60;;;;;;4972730;28;20400;-74
2022/09/21 07:30:42;;;;;;;4.40;3.13;;;14.70;89.80;;;;;;4939786;28;20426;-75
2022/09/21 07:33:08;;;;;;;5.67;3.10;;;14.70;89.80;;;;;;4941375;28;20940;-74
2022/09/21 07:35:34;;;;;;;6.03;3.33;;;14.70;89.90;;;;;;4974741;28;20438;-74
2022/09/21 07:38:03;;;;;;;4.20;3.57;;;14.60;89.80;;;;;;4974393;28;20440;-74
2022/09/21 07:40:32;;;;;;;4.47;3.57;;;14.70;90.00;;;;;;4991970;28;20500;-74
2022/09/21 07:43:01;;;;;;;4.70;3.70;;;14.70;90.10;;;;;;4942872;28;20428;-74
2022/09/21 07:45:32;;;;;;;4.87;4.27;;;14.70;90.20;;;;;;4974446;28;20466;-74
2022/09/21 07:48:07;;;;;;;8.20;4.00;;;14.70;90.20;;;;;;4974375;28;20436;-74
2022/09/21 07:50:34;;;;;;;9.40;3.60;;;14.70;90.30;;;;;;4974520;28;20399;-74
2022/09/21 07:53:01;;;;;;;6.20;4.00;;;14.70;90.40;;;;;;4990843;28;20953;-73
2022/09/21 07:55:30;;;;;;;3.90;3.40;;;14.70;90.40;;;;;;4972757;28;20499;-74
2022/09/21 08:00:42;;;;;;;5.63;4.03;;;14.70;90.50;;;;;;4922383;28;20870;-75
2022/09/21 08:03:09;;;;;;;4.30;3.40;;;14.70;90.50;;;;;;4972449;28;20410;-75
2022/09/21 08:05:35;;;;;;;11.83;3.60;;;14.70;90.50;;;;;;4971077;28;20565;-75
2022/09/21 08:08:04;;;;;;;4.83;3.77;;;14.70;90.50;;;;;;4951447;28;20438;-75
2022/09/21 08:10:30;;;;;;;4.33;3.77;;;14.70;90.50;;;;;;4920063;29;20900;-75
2022/09/21 08:12:57;;;;;;;4.67;4.00;;;14.70;90.50;;;;;;4936108;29;20270;-76
2022/09/21 08:15:27;;;;;;;5.20;3.83;;;14.70;90.50;;;;;;4951901;29;20478;-76
2022/09/21 08:17:57;;;;;;;5.23;3.43;;;14.70;90.50;;;;;;4935883;29;20445;-74
2022/09/21 08:20:28;;;;;;;6.27;4.13;;;14.70;90.50;;;;;;4951866;29;20415;-74
2022/09/21 08:22:56;;;;;;;7.70;3.73;;;14.70;90.60;;;;;;4952524;28;20446;-74
2022/09/21 08:25:27;;;;;;;6.30;3.97;;;14.70;90.60;;;;;;4938961;29;20480;-74
2022/09/21 08:27:57;;;;;;;5.90;3.97;;;14.70;90.60;;;;;;4956495;29;20403;-75
2022/09/21 08:30:29;;;;;;;6.07;4.13;;;14.80;90.60;;;;;;4956566;29;20410;-74
2022/09/21 08:32:59;;;;;;;5.43;4.13;;;14.80;90.70;;;;;;4956543;29;20898;-74
2022/09/21 08:35:28;;;;;;;7.87;4.13;;;14.80;90.70;;;;;;4955177;29;20553;-74
2022/09/21 08:37:59;;;;;;;5.47;3.97;;;14.80;90.70;;;;;;4953474;28;20428;-76
2022/09/21 08:40:27;;;;;;;5.90;4.10;;;14.80;90.70;;;;;;4939141;29;20781;-75
2022/09/21 08:43:08;;;;;;;6.43;3.77;;;14.80;90.80;;;;;;4956382;29;20422;-74
2022/09/21 08:45:43;;;;;;;6.73;4.10;;;14.80;90.80;;;;;;4956156;29;20476;-74
2022/09/21 08:48:31;;;;;;;9.63;3.73;;;14.80;90.90;;;;;;4954727;29;20485;-74
2022/09/21 08:51:05;;;;;;;6.97;4.30;;;14.90;91.00;;;;;;4923483;29;20457;-75
2022/09/21 08:53:41;;;;;;;6.10;3.43;;;14.90;91.00;;;;;;4938914;29;20465;-75
2022/09/21 08:56:12;;;;;;;5.90;3.70;;;14.90;91.00;;;;;;4956093;29;20444;-75
2022/09/21 08:58:40;;;;;;;4.10;3.10;;;14.90;91.10;;;;;;4955808;29;20475;-74
2022/09/21 09:01:23;;;;;;;5.07;3.80;;;14.90;91.10;;;;;;4955897;29;20418;-75
2022/09/21 09:04:27;;;;;;;5.70;3.80;;;14.90;91.10;;;;;;4956030;29;20426;-75
2022/09/21 09:07:16;;;;;;;4.73;3.33;;;15.00;91.10;;;;;;4954899;29;20478;-76
2022/09/21 09:10:16;;;;;;;4.00;3.23;;;15.00;91.10;;;;;;4966653;28;20482;-74
2022/09/21 09:13:20;;;;;;;6.07;2.80;;;15.00;91.10;;;;;;4994659;28;20438;-74
2022/09/21 09:16:04;;;;;;;4.43;3.33;;;15.00;91.00;;;;;;4942336;29;20463;-75
2022/09/21 09:18:59;;;;;;;3.80;3.33;;;15.10;91.10;;;;;;4938384;29;20442;-74
2022/09/21 09:21:33;;;;;;;4.17;3.20;;;15.10;91.10;;;;;;4955649;29;20465;-74
2022/09/21 09:24:42;;;;;;;9.23;3.20;;;15.10;91.10;;;;;;4922508;29;20437;-74
2022/09/21 09:27:26;;;;;;;4.87;3.00;;;15.10;91.10;;;;;;4922828;29;20427;-75
2022/09/21 09:30:17;;;;;;;4.20;2.83;;;15.20;91.10;;;;;;4922417;29;20922;-74
2022/09/21 09:33:00;;;;;;;3.07;2.60;;;15.20;91.10;;;;;;4938549;29;20461;-74
2022/09/21 09:35:43;;;;;;;4.70;2.77;;;15.20;91.10;;;;;;4954713;28;20459;-75
2022/09/21 09:38:20;;;;;;;3.80;3.10;;;15.30;91.10;;;;;;4947331;28;20414;-74
2022/09/21 09:41:06;;;;;;;3.87;3.00;;;15.30;91.10;;;;;;4956895;28;20831;-75
2022/09/21 09:44:05;;;;;;;4.17;2.40;;;15.30;91.00;;;;;;4973141;28;20430;-75
2022/09/21 09:46:34;;;;;;;5.30;2.77;;;15.40;91.10;;;;;;4973163;28;20508;-74
2022/09/21 09:49:07;;;;;;;3.50;2.80;;;15.40;91.00;;;;;;4957120;28;20517;-75
2022/09/21 09:51:37;;;;;;;3.63;2.20;;;15.40;91.00;;;;;;4941507;28;20436;-75
2022/09/21 09:54:03;;;;;;;3.57;2.53;;;15.50;91.00;;;;;;4974151;28;20411;-75
2022/09/21 09:56:35;;;;;;;3.00;2.40;;;15.50;91.00;;;;;;4973060;28;20455;-74
2022/09/21 09:59:09;;;;;;;6.40;2.20;;;15.50;90.90;;;;;;4957145;28;20987;-75
2022/09/21 10:01:36;;;;;;;3.80;2.50;;;15.60;91.00;;;;;;4956757;28;20530;-75
2022/09/21 10:04:10;;;;;;;3.47;2.20;;;15.60;91.00;;;;;;4973160;28;20430;-75
2022/09/21 10:06:40;;;;;;;3.20;1.63;;;15.60;91.00;;;;;;4956466;28;20445;-75
2022/09/21 10:09:28;;;;;;;4.20;2.10;;;15.60;90.90;;;;;;4976308;28;20430;-74
2022/09/21 10:12:13;;;;;;;3.80;2.00;;;15.70;90.90;;;;;;4960100;28;20458;-75
2022/09/21 10:14:48;;;;;;;3.07;2.13;;;15.70;90.80;;;;;;4987872;28;20465;-75
2022/09/21 10:17:17;;;;;;;4.27;2.77;;;15.70;90.80;;;;;;4940761;28;20430;-74
2022/09/21 10:19:44;;;;;;;5.87;2.37;;;15.80;90.80;;;;;;4956675;28;20406;-75
2022/09/21 10:22:19;;;;;;;2.23;2.03;;;15.80;90.80;;;;;;4940141;28;20467;-75
2022/09/21 10:24:53;;;;;;;4.67;2.07;;;15.80;90.80;;;;;;4940098;28;20485;-74
2022/09/21 10:27:28;;;;;;;3.30;2.30;;;15.90;90.80;;;;;;4972735;28;20425;-75
2022/09/21 10:29:54;;;;;;;4.07;2.10;;;15.90;90.80;;;;;;4973625;28;20413;-74
2022/09/21 10:32:23;;;;;;;3.13;2.10;;;15.90;90.70;;;;;;4940190;28;20393;-74
2022/09/21 10:35:06;;;;;;;4.33;1.70;;;16.00;90.70;;;;;;4957850;28;20439;-74
2022/09/21 10:37:40;;;;;;;2.53;1.90;;;16.00;90.60;;;;;;4940481;28;20418;-75
2022/09/21 10:40:23;;;;;;;3.17;2.23;;;16.00;90.60;;;;;;4973468;28;20443;-75
2022/09/21 10:42:55;;;;;;;2.60;1.93;;;16.10;90.60;;;;;;4956013;28;20435;-74
2022/09/21 10:45:30;;;;;;;3.80;2.03;;;16.10;90.50;;;;;;4981712;28;20484;-75
2022/09/21 10:48:07;;;;;;;2.87;1.80;;;16.10;90.50;;;;;;4952306;28;20440;-74
2022/09/21 10:50:43;;;;;;;2.40;1.60;;;16.20;90.40;;;;;;4952837;29;20955;-75
2022/09/21 10:53:09;;;;;;;3.23;2.10;;;16.20;90.30;;;;;;4959763;28;20431;-74
2022/09/21 10:55:40;;;;;;;1.80;1.63;;;16.20;90.30;;;;;;4972991;28;20508;-75
2022/09/21 10:58:12;;;;;;;2.63;1.80;;;16.20;90.20;;;;;;4955902;28;20175;-74
2022/09/21 11:00:46;;;;;;;3.93;1.80;;;16.30;90.20;;;;;;4973261;28;20405;-74
2022/09/21 11:03:32;;;;;;;2.73;2.00;;;16.30;90.10;;;;;;4940454;28;20471;-75
2022/09/21 11:06:13;;;;;;;4.50;1.60;;;16.30;90.10;;;;;;4939566;28;20474;-75
2022/09/21 11:08:50;;;;;;;1.80;1.60;;;16.40;90.10;;;;;;4972995;28;20401;-74
2022/09/21 11:11:40;;;;;;;2.97;1.80;;;16.40;90.10;;;;;;4955804;28;20457;-75
2022/09/21 11:14:48;;;;;;;4.03;1.80;;;16.40;90.40;;;;;;4986098;28;20434;-74
2022/09/21 11:17:25;;;;;;;2.23;1.87;;;16.50;90.00;;;;;;4955744;28;20846;-75
2022/09/21 11:20:28;;;;;;;1.60;1.50;;;16.50;90.00;;;;;;4939720;28;20532;-74
2022/09/21 11:23:00;;;;;;;2.40;1.73;;;16.50;90.00;;;;;;4939525;28;20884;-74
2022/09/21 11:26:07;;;;;;;3.70;1.70;;;16.60;90.00;;;;;;4972661;28;20464;-74
2022/09/21 11:28:50;;;;;;;2.97;2.00;;;16.60;90.00;;;;;;4952506;28;20443;-74
2022/09/21 11:31:16;;;;;;;3.60;1.80;;;16.70;90.00;;;;;;4971559;28;20414;-74
2022/09/21 11:33:52;;;;;;;3.23;1.47;;;16.70;89.90;;;;;;4955639;28;20924;-74
2022/09/21 11:36:28;;;;;;;2.30;1.50;;;16.70;89.90;;;;;;4939537;28;20260;-74
2022/09/21 11:39:12;;;;;;;2.73;1.63;;;16.80;89.70;;;;;;4955401;28;20400;-74
2022/09/21 11:41:50;;;;;;;4.00;1.83;;;16.80;89.60;;;;;;4939716;28;20431;-74
2022/09/21 11:44:22;;;;;;;5.03;1.60;;;16.80;89.30;;;;;;4941546;28;20413;-74
2022/09/21 11:47:16;;;;;;;1.87;1.60;;;16.80;89.00;;;;;;4974918;28;20493;-74
2022/09/21 11:50:09;;;;;;;2.23;1.50;;;16.90;88.80;;;;;;4975093;28;20971;-75
2022/09/21 11:53:03;;;;;;;2.60;1.53;;;16.90;88.70;;;;;;4972018;28;20494;-75
2022/09/21 11:55:43;;;;;;;1.90;1.20;;;16.90;88.80;;;;;;4971519;28;20797;-75
2022/09/21 11:58:27;;;;;;;3.57;1.90;;;17.00;88.90;;;;;;4956346;28;20413;-75
2022/09/21 12:01:11;;;;;;;2.30;1.33;;;17.00;88.80;;;;;;4958913;28;20405;-76
2022/09/21 12:04:02;;;;;;;2.70;1.40;;;17.00;88.50;;;;;;4960031;28;20946;-74
2022/09/21 12:06:48;;;;;;;2.93;1.53;;;17.00;88.30;;;;;;4976147;28;20852;-76
2022/09/21 12:09:35;;;;;;;3.83;1.60;;;17.00;88.10;;;;;;4958574;28;20408;-74
2022/09/21 12:12:10;;;;;;;2.80;1.30;;;17.10;88.10;;;;;;4958853;28;20420;-75
2022/09/21 12:14:58;;;;;;;1.87;1.40;;;17.10;88.00;;;;;;4940718;28;20525;-74
2022/09/21 12:17:31;;;;;;;3.10;1.30;;;17.10;87.90;;;;;;4955541;29;20433;-76
2022/09/21 12:20:03;;;;;;;3.27;1.33;;;17.10;87.70;;;;;;4923680;29;20946;-74
2022/09/21 12:22:37;;;;;;;1.50;1.10;;;17.10;87.70;;;;;;4939536;29;20405;-74
2022/09/21 12:25:22;;;;;;;1.50;1.40;;;17.20;87.70;;;;;;4956428;29;20503;-74
2022/09/21 12:27:53;;;;;;;3.73;1.70;;;17.20;87.70;;;;;;4955576;29;20430;-74
2022/09/21 12:30:21;;;;;;;1.50;1.33;;;17.20;87.70;;;;;;4939344;29;20769;-74
2022/09/21 12:32:54;;;;;;;3.73;1.50;;;17.20;87.60;;;;;;4939057;29;20482;-74
2022/09/21 12:36:03;;;;;;;3.20;1.57;;;17.20;87.50;;;;;;4939363;29;20843;-74
2022/09/21 12:38:44;;;;;;;3.83;1.40;;;17.30;87.60;;;;;;4896666;29;20458;-74
2022/09/21 12:41:22;;;;;;;1.40;1.30;;;17.30;87.40;;;;;;4897134;29;20512;-74
2022/09/21 12:43:54;;;;;;;1.83;1.30;;;17.30;87.30;;;;;;4931186;28;20565;-75
2022/09/21 12:46:33;;;;;;;2.23;1.70;;;17.30;87.20;;;;;;4958082;28;20477;-74
2022/09/21 12:49:07;;;;;;;2.17;1.60;;;17.40;87.30;;;;;;4958197;28;20479;-74
2022/09/21 12:51:39;;;;;;;3.33;1.50;;;17.40;87.20;;;;;;4958144;28;20436;-74
2022/09/21 12:54:37;;;;;;;7.57;1.77;;;17.40;87.20;;;;;;4970273;28;20440;-75
2022/09/21 12:57:24;;;;;;;1.90;1.30;;;17.40;86.90;;;;;;4928864;28;20434;-76
2022/09/21 13:00:12;;;;;;;3.10;1.30;;;17.50;87.00;;;;;;4944652;28;20967;-71
2022/09/21 13:02:44;;;;;;;1.90;1.60;;;17.50;86.90;;;;;;4994438;28;20412;-72
2022/09/21 13:05:41;;;;;;;2.13;1.13;;;17.50;86.80;;;;;;4975339;28;20471;-71
2022/09/21 13:08:20;;;;;;;3.17;1.73;;;17.50;86.70;;;;;;4977388;28;20419;-72
2022/09/21 13:10:56;;;;;;;3.10;1.60;;;17.50;86.50;;;;;;4976270;28;20412;-72
2022/09/21 13:13:32;;;;;;;3.10;1.57;;;17.60;86.00;;;;;;4977009;28;20436;-73
2022/09/21 13:16:00;;;;;;;1.90;1.60;;;17.60;85.80;;;;;;4992772;28;20987;-72
2022/09/21 13:18:33;;;;;;;2.80;1.30;;;17.60;85.90;;;;;;4957504;28;20478;-73
2022/09/21 13:21:01;;;;;;;2.47;1.70;;;17.60;85.90;;;;;;4941903;28;20436;-74
2022/09/21 13:23:41;;;;;;;1.93;1.17;;;17.60;85.80;;;;;;4926034;28;20539;-74
2022/09/21 13:26:11;;;;;;;4.10;1.60;;;17.60;85.70;;;;;;4974301;28;20534;-74
2022/09/21 13:28:57;;;;;;;1.40;1.30;;;17.70;85.80;;;;;;4941481;28;20440;-73